createdAt,value
2018-12-23T00:01:07.288Z,7.77
2018-12-23T00:03:35.510Z,8.65
2018-12-23T00:06:03.696Z,9.68
2018-12-23T00:08:31.919Z,12.63
2018-12-23T00:11:00.109Z,15.63
2018-12-23T00:13:28.306Z,6.58
2018-12-23T00:15:56.515Z,6.47
2018-12-23T00:18:24.766Z,10.45
2018-12-23T00:20:52.982Z,5.17
2018-12-23T00:23:21.155Z,11.40
2018-12-23T00:25:49.360Z,7.13
2018-12-23T00:28:17.585Z,8.30
2018-12-23T00:30:45.818Z,6.05
2018-12-23T00:33:14.035Z,8.65
2018-12-23T00:35:42.230Z,7.17
2018-12-23T00:38:10.448Z,8.60
2018-12-23T00:40:38.830Z,6.47
2018-12-23T00:43:07.045Z,6.00
2018-12-23T00:45:35.226Z,8.53
2018-12-23T00:48:03.504Z,9.05
2018-12-23T00:50:31.709Z,5.73
2018-12-23T00:52:59.924Z,13.65
2018-12-23T00:55:28.133Z,11.97
2018-12-23T00:57:56.346Z,9.63
2018-12-23T01:00:24.639Z,8.55
2018-12-23T01:02:52.853Z,16.45
2018-12-23T01:05:28.601Z,6.15
2018-12-23T01:07:51.442Z,8.98
2018-12-23T01:10:19.683Z,7.67
2018-12-23T01:12:47.850Z,10.80
2018-12-23T01:15:16.034Z,8.13
2018-12-23T01:17:44.210Z,10.58
2018-12-23T01:20:12.597Z,10.00
2018-12-23T01:22:40.838Z,12.35
2018-12-23T01:25:10.874Z,7.05
2018-12-23T01:27:39.138Z,9.68
2018-12-23T01:30:07.400Z,8.43
2018-12-23T01:32:35.644Z,8.25
2018-12-23T01:35:04.014Z,7.53
2018-12-23T01:37:32.256Z,9.98
2018-12-23T01:40:00.434Z,11.45
2018-12-23T01:42:28.647Z,11.17
2018-12-23T01:44:57.010Z,10.38
2018-12-23T01:47:25.185Z,8.63
2018-12-23T01:49:53.525Z,15.60
2018-12-23T01:52:21.761Z,14.37
2018-12-23T01:54:49.999Z,6.92
2018-12-23T01:57:18.208Z,7.97
2018-12-23T01:59:46.490Z,12.88
2018-12-23T02:02:14.661Z,8.33
2018-12-23T02:04:42.883Z,12.63
2018-12-23T02:07:11.090Z,8.03
2018-12-23T02:09:39.308Z,11.03
2018-12-23T02:12:07.530Z,11.97
2018-12-23T02:14:35.713Z,8.03
2018-12-23T02:17:04.077Z,11.10
2018-12-23T02:19:32.290Z,11.50
2018-12-23T02:22:00.482Z,12.13
2018-12-23T02:24:28.675Z,10.25
2018-12-23T02:26:56.895Z,9.58
2018-12-23T02:29:26.307Z,10.28
2018-12-23T02:31:54.603Z,12.67
2018-12-23T02:34:23.287Z,9.88
2018-12-23T02:36:51.573Z,12.60
2018-12-23T02:39:19.807Z,9.85
2018-12-23T02:41:48.139Z,10.57
2018-12-23T02:44:16.322Z,12.13
2018-12-23T02:46:44.520Z,9.97
2018-12-23T02:49:12.903Z,12.65
2018-12-23T02:51:41.147Z,9.67
2018-12-23T02:54:09.456Z,7.80
2018-12-23T02:56:37.701Z,13.10
2018-12-23T02:59:05.911Z,11.83
2018-12-23T03:01:34.178Z,12.87
2018-12-23T03:04:02.368Z,11.90
2018-12-23T03:06:30.647Z,11.23
2018-12-23T03:08:58.841Z,10.58
2018-12-23T03:11:27.110Z,8.13
2018-12-23T03:13:55.323Z,8.60
2018-12-23T03:16:23.588Z,11.67
2018-12-23T03:18:51.846Z,8.70
2018-12-23T03:21:20.068Z,10.40
2018-12-23T03:23:48.261Z,11.70
2018-12-23T03:26:16.433Z,8.67
2018-12-23T03:28:44.623Z,9.40
2018-12-23T03:31:12.759Z,9.15
2018-12-23T03:33:41.154Z,8.05
2018-12-23T03:36:14.964Z,9.40
2018-12-23T03:38:39.624Z,12.78
2018-12-23T03:41:07.839Z,12.88
2018-12-23T03:43:36.050Z,12.20
2018-12-23T03:46:04.301Z,11.23
2018-12-23T03:48:32.506Z,11.28
2018-12-23T03:51:00.723Z,11.80
2018-12-23T03:53:29.009Z,12.35
2018-12-23T03:55:57.194Z,11.73
2018-12-23T03:58:25.411Z,12.03
2018-12-23T04:00:53.663Z,13.27
2018-12-23T04:03:21.893Z,10.60
2018-12-23T04:05:50.137Z,9.57
2018-12-23T04:08:18.415Z,12.82
2018-12-23T04:10:46.640Z,11.63
2018-12-23T04:13:14.866Z,11.20
2018-12-23T04:15:43.165Z,10.03
2018-12-23T04:18:11.365Z,8.33
2018-12-23T04:20:39.565Z,13.40
2018-12-23T04:23:07.750Z,10.82
2018-12-23T04:25:35.959Z,12.00
2018-12-23T04:28:04.184Z,12.03
2018-12-23T04:30:32.366Z,11.40
2018-12-23T04:33:00.630Z,10.20
2018-12-23T04:35:28.825Z,11.53
2018-12-23T04:37:57.077Z,11.63
2018-12-23T04:40:25.253Z,11.03
2018-12-23T04:42:53.471Z,7.40
2018-12-23T04:45:21.739Z,9.10
2018-12-23T04:47:49.978Z,8.55
2018-12-23T04:50:18.188Z,12.53
2018-12-23T04:52:46.459Z,9.30
2018-12-23T04:55:14.681Z,15.08
2018-12-23T04:57:42.890Z,7.28
2018-12-23T05:00:11.182Z,8.00
2018-12-23T05:02:39.361Z,9.80
2018-12-23T05:05:07.657Z,7.08
2018-12-23T05:07:35.838Z,11.43
2018-12-23T05:10:04.599Z,10.88
2018-12-23T05:12:32.790Z,9.95
2018-12-23T05:15:00.998Z,14.98
2018-12-23T05:17:29.815Z,9.80
2018-12-23T05:19:58.115Z,8.28
2018-12-23T05:22:26.308Z,10.73
2018-12-23T05:24:54.500Z,6.25
2018-12-23T05:27:22.689Z,8.67
2018-12-23T05:29:50.953Z,9.83
2018-12-23T05:32:19.208Z,8.28
2018-12-23T05:34:47.479Z,10.70
2018-12-23T05:37:15.701Z,8.07
2018-12-23T05:39:43.992Z,10.88
2018-12-23T05:42:12.206Z,10.43
2018-12-23T05:44:40.389Z,7.35
2018-12-23T05:47:08.647Z,6.07
2018-12-23T05:49:36.970Z,7.67
2018-12-23T05:52:05.170Z,9.90
2018-12-23T05:54:33.363Z,9.70
2018-12-23T05:57:01.533Z,7.53
2018-12-23T05:59:30.477Z,6.75
2018-12-23T06:01:58.720Z,8.67
2018-12-23T06:04:27.010Z,9.95
2018-12-23T06:07:00.881Z,7.63
2018-12-23T06:09:25.470Z,10.32
2018-12-23T06:11:53.690Z,9.40
2018-12-23T06:14:21.885Z,10.25
2018-12-23T06:16:50.089Z,8.60
2018-12-23T06:19:18.277Z,8.50
2018-12-23T06:21:46.457Z,7.03
2018-12-23T06:24:14.802Z,7.35
2018-12-23T06:26:43.047Z,6.22
2018-12-23T06:29:11.284Z,7.25
2018-12-23T06:31:39.479Z,8.80
2018-12-23T06:34:07.662Z,5.97
2018-12-23T06:36:35.861Z,7.90
2018-12-23T06:39:05.812Z,4.97
2018-12-23T06:41:34.039Z,5.70
2018-12-23T06:44:02.260Z,7.00
2018-12-23T06:46:30.419Z,7.83
2018-12-23T06:48:58.605Z,8.28
2018-12-23T06:51:26.822Z,9.35
2018-12-23T06:53:54.989Z,5.67
2018-12-23T06:56:23.174Z,6.03
2018-12-23T06:58:51.381Z,6.35
2018-12-23T07:01:19.575Z,6.40
2018-12-23T07:03:47.796Z,5.50
2018-12-23T07:06:15.964Z,7.43
2018-12-23T07:08:44.156Z,8.33
2018-12-23T07:11:12.418Z,5.00
2018-12-23T07:13:40.621Z,5.53
2018-12-23T07:16:08.840Z,5.73
2018-12-23T07:18:37.198Z,8.88
2018-12-23T07:21:05.370Z,9.17
2018-12-23T07:23:33.557Z,4.30
2018-12-23T07:26:01.758Z,5.62
2018-12-23T07:28:29.985Z,6.78
2018-12-23T07:30:58.192Z,5.53
2018-12-23T07:33:26.470Z,4.85
2018-12-23T07:35:54.650Z,6.50
2018-12-23T07:38:22.858Z,4.17
2018-12-23T07:40:51.027Z,6.87
2018-12-23T07:43:19.226Z,6.12
2018-12-23T07:45:47.449Z,5.80
2018-12-23T07:48:15.659Z,4.85
2018-12-23T07:50:43.911Z,11.48
2018-12-23T07:53:12.196Z,8.35
2018-12-23T07:55:40.424Z,6.50
2018-12-23T07:58:08.770Z,6.97
2018-12-23T08:00:37.001Z,5.08
2018-12-23T08:03:05.257Z,6.45
2018-12-23T08:05:33.856Z,8.20
2018-12-23T08:08:02.050Z,5.92
2018-12-23T08:10:30.299Z,5.33
2018-12-23T08:12:58.503Z,7.47
2018-12-23T08:15:26.728Z,4.80
2018-12-23T08:17:54.931Z,4.60
2018-12-23T08:20:23.101Z,4.28
2018-12-23T08:22:51.319Z,8.68
2018-12-23T08:25:19.531Z,5.37
2018-12-23T08:27:47.802Z,6.92
2018-12-23T08:30:16.016Z,4.45
2018-12-23T08:32:44.254Z,7.90
2018-12-23T08:35:12.487Z,7.60
2018-12-23T08:37:44.568Z,7.50
2018-12-23T08:40:10.839Z,5.05
2018-12-23T08:42:39.035Z,5.37
2018-12-23T08:45:07.307Z,10.00
2018-12-23T08:47:35.526Z,5.40
2018-12-23T08:50:04.065Z,4.55
2018-12-23T08:52:32.257Z,5.45
2018-12-23T08:55:00.465Z,6.75
2018-12-23T08:57:28.761Z,4.67
2018-12-23T08:59:57.019Z,4.65
2018-12-23T09:02:25.206Z,6.40
2018-12-23T09:04:53.381Z,5.12
2018-12-23T09:07:21.568Z,4.07
2018-12-23T09:09:49.890Z,3.83
2018-12-23T09:12:18.134Z,4.90
2018-12-23T09:14:46.347Z,3.58
2018-12-23T09:17:14.586Z,10.20
2018-12-23T09:19:42.930Z,4.60
2018-12-23T09:22:11.170Z,6.30
2018-12-23T09:24:39.371Z,5.90
2018-12-23T09:27:07.581Z,5.33
2018-12-23T09:29:35.855Z,5.45
2018-12-23T09:32:04.181Z,4.50
2018-12-23T09:34:32.398Z,5.45
2018-12-23T09:37:00.644Z,3.63
2018-12-23T09:39:28.888Z,8.98
2018-12-23T09:41:57.104Z,5.67
2018-12-23T09:44:25.329Z,8.20
2018-12-23T09:46:53.524Z,9.47
2018-12-23T09:49:21.738Z,9.13
2018-12-23T09:51:49.960Z,6.97
2018-12-23T09:57:44.735Z,7.17
2018-12-23T10:00:25.599Z,4.37
2018-12-23T10:03:06.819Z,5.35
2018-12-23T10:05:47.340Z,6.80
2018-12-23T10:11:14.227Z,5.42
2018-12-23T10:16:44.627Z,5.03
2018-12-23T10:22:11.519Z,4.37
2018-12-23T10:30:20.523Z,4.25
2018-12-23T10:33:01.956Z,4.05
2018-12-23T10:35:42.984Z,7.03
2018-12-23T10:38:23.701Z,4.95
2018-12-23T10:43:48.299Z,4.53
2018-12-23T10:46:29.442Z,6.43
2018-12-23T10:52:00.382Z,4.70
2018-12-23T10:57:27.426Z,7.97
2018-12-23T11:02:50.679Z,6.53
2018-12-23T11:05:32.155Z,7.40
2018-12-23T11:08:13.592Z,6.33
2018-12-23T11:10:54.876Z,6.63
2018-12-23T11:13:35.689Z,4.58
2018-12-23T11:16:18.331Z,4.80
2018-12-23T11:18:59.235Z,5.78
2018-12-23T11:21:39.986Z,6.47
2018-12-23T11:24:21.094Z,5.97
2018-12-23T11:27:02.203Z,5.70
2018-12-23T11:29:43.596Z,4.90
2018-12-23T11:32:24.612Z,7.95
2018-12-23T11:35:06.188Z,5.55
2018-12-23T11:37:46.928Z,3.10
2018-12-23T11:40:27.819Z,4.20
2018-12-23T11:43:09.144Z,5.00
2018-12-23T11:45:49.842Z,4.50
2018-12-23T11:48:31.139Z,7.58
2018-12-23T11:51:12.090Z,3.97
2018-12-23T11:53:52.936Z,4.37
2018-12-23T11:56:34.331Z,3.07
2018-12-23T11:59:15.575Z,8.88
2018-12-23T12:01:56.615Z,4.90
2018-12-23T12:04:37.765Z,5.03
2018-12-23T12:07:18.607Z,5.33
2018-12-23T12:09:59.601Z,4.72
2018-12-23T12:12:41.098Z,6.50
2018-12-23T12:15:24.598Z,6.97
2018-12-23T12:18:05.391Z,6.15
2018-12-23T12:20:46.690Z,4.27
2018-12-23T12:23:28.159Z,4.60
2018-12-23T12:26:09.358Z,5.77
2018-12-23T12:28:50.151Z,7.08
2018-12-23T12:31:31.233Z,5.17
2018-12-23T12:34:12.484Z,7.42
2018-12-23T12:36:53.584Z,7.50
2018-12-23T12:39:35.468Z,7.00
2018-12-23T12:42:16.491Z,5.93
2018-12-23T12:44:57.436Z,7.33
2018-12-23T12:47:38.619Z,4.87
2018-12-23T12:50:08.270Z,5.90
2018-12-23T12:52:56.600Z,5.22
2018-12-23T12:55:45.080Z,3.92
2018-12-23T12:58:33.443Z,3.90
2018-12-23T13:01:21.803Z,4.00
2018-12-23T13:07:04.509Z,6.17
2018-12-23T13:09:52.880Z,4.28
2018-12-23T13:12:41.372Z,5.73
2018-12-23T13:18:37.192Z,7.55
2018-12-23T13:21:25.535Z,2.73
2018-12-23T13:24:13.932Z,7.37
2018-12-23T13:29:56.444Z,4.92
2018-12-23T13:32:44.936Z,5.90
2018-12-23T13:35:14.577Z,3.30
2018-12-23T13:38:02.939Z,4.03
2018-12-23T13:41:10.406Z,5.80
2018-12-23T13:44:17.856Z,4.62
2018-12-23T13:47:25.319Z,3.47
2018-12-23T13:50:32.751Z,5.50
2018-12-23T13:53:25.712Z,8.18
2018-12-23T13:56:33.155Z,4.40
2018-12-23T13:59:40.697Z,7.42
2018-12-23T14:02:48.195Z,4.23
2018-12-23T14:05:55.650Z,3.72
2018-12-23T14:09:04.515Z,4.72
2018-12-23T14:12:12.024Z,2.47
2018-12-23T14:15:00.492Z,2.75
2018-12-23T14:17:48.874Z,3.63
2018-12-23T14:23:31.200Z,2.47
2018-12-23T14:26:19.570Z,4.40
2018-12-23T14:29:07.903Z,5.72
2018-12-23T14:31:56.263Z,5.03
2018-12-23T14:34:44.683Z,3.80
2018-12-23T14:37:33.054Z,6.00
2018-12-23T14:40:21.501Z,5.78
2018-12-23T14:43:09.878Z,6.67
2018-12-23T14:45:58.351Z,4.37
2018-12-23T14:48:46.842Z,4.92
2018-12-23T14:51:35.346Z,7.37
2018-12-23T14:54:23.707Z,6.03
2018-12-23T14:57:12.075Z,8.70
2018-12-23T15:00:00.411Z,8.48
2018-12-23T15:02:49.037Z,6.03
2018-12-23T15:05:37.419Z,5.80
2018-12-23T15:08:44.995Z,3.77
2018-12-23T15:11:33.590Z,3.87
2018-12-23T15:14:22.447Z,5.90
2018-12-23T15:17:11.090Z,4.57
2018-12-23T15:19:59.835Z,4.80
2018-12-23T15:22:48.183Z,3.20
2018-12-23T15:25:36.726Z,3.08
2018-12-23T15:28:25.095Z,5.35
2018-12-23T15:31:13.470Z,3.65
2018-12-23T15:34:01.867Z,3.72
2018-12-23T15:36:42.860Z,5.03
2018-12-23T15:39:24.040Z,4.30
2018-12-23T15:42:05.676Z,2.43
2018-12-23T15:44:46.498Z,4.03
2018-12-23T15:47:27.506Z,3.10
2018-12-23T15:50:08.295Z,3.80
2018-12-23T15:52:48.961Z,1.67
2018-12-23T15:55:29.763Z,3.22
2018-12-23T15:58:10.702Z,4.28
2018-12-23T16:00:52.007Z,3.37
2018-12-23T16:03:33.089Z,4.03
2018-12-23T16:06:14.607Z,2.17
2018-12-23T16:08:56.190Z,4.28
2018-12-23T16:11:37.127Z,3.93
2018-12-23T16:14:18.267Z,3.10
2018-12-23T16:16:59.617Z,4.60
2018-12-23T16:19:40.242Z,4.37
2018-12-23T16:22:20.806Z,2.93
2018-12-23T16:25:02.120Z,3.67
2018-12-23T16:27:42.931Z,2.67
2018-12-23T16:30:24.291Z,1.90
2018-12-23T16:33:04.952Z,4.10
2018-12-23T16:35:45.682Z,2.83
2018-12-23T16:38:26.967Z,4.78
2018-12-23T16:41:07.740Z,2.70
2018-12-23T16:43:49.199Z,1.98
2018-12-23T16:46:30.005Z,6.73
2018-12-23T16:49:11.035Z,2.65
2018-12-23T16:51:52.251Z,2.07
2018-12-23T16:54:33.584Z,3.50
2018-12-23T16:57:15.051Z,2.70
2018-12-23T16:59:56.119Z,2.08
2018-12-23T17:02:37.081Z,2.17
2018-12-23T17:05:18.351Z,2.70
2018-12-23T17:07:59.664Z,2.80
2018-12-23T17:10:40.495Z,2.43
2018-12-23T17:13:21.924Z,3.10
2018-12-23T17:16:03.091Z,2.15
2018-12-23T17:18:42.703Z,3.08
2018-12-23T17:21:31.066Z,2.47
2018-12-23T17:24:19.534Z,4.55
2018-12-23T17:27:08.037Z,4.28
2018-12-23T17:29:57.192Z,2.83
2018-12-23T17:32:45.839Z,3.27
2018-12-23T17:35:26.443Z,3.80
2018-12-23T17:38:07.555Z,5.22
2018-12-23T17:40:48.728Z,4.07
2018-12-23T17:43:30.023Z,3.15
2018-12-23T17:46:10.654Z,2.27
2018-12-23T17:48:52.036Z,2.20
2018-12-23T17:51:33.564Z,3.13
2018-12-23T17:54:14.358Z,2.87
2018-12-23T17:56:55.810Z,2.27
2018-12-23T17:59:36.918Z,3.37
2018-12-23T18:02:17.935Z,4.20
2018-12-23T18:04:59.440Z,4.05
2018-12-23T18:07:40.115Z,2.27
2018-12-23T18:10:25.021Z,2.35
2018-12-23T18:13:03.804Z,1.70
2018-12-23T18:15:44.952Z,1.98
2018-12-23T18:18:26.085Z,2.27
2018-12-23T18:21:07.687Z,2.93
2018-12-23T18:23:48.796Z,2.17
2018-12-23T18:32:27.451Z,2.22
2018-12-23T18:35:08.372Z,2.02
2018-12-23T18:37:49.431Z,2.33
2018-12-23T18:40:33.461Z,2.27
2018-12-23T18:43:13.626Z,3.80
2018-12-23T18:45:54.440Z,2.40
2018-12-23T18:48:35.748Z,2.10
2018-12-23T18:51:16.728Z,2.53
2018-12-23T18:56:55.963Z,4.43
2018-12-23T18:59:36.566Z,3.20
2018-12-23T19:02:17.541Z,3.65
2018-12-23T19:04:58.840Z,2.98
2018-12-23T19:07:40.158Z,3.43
2018-12-23T19:10:20.780Z,5.08
2018-12-23T19:13:02.248Z,2.98
2018-12-23T19:15:42.963Z,2.97
2018-12-23T19:18:24.004Z,2.50
2018-12-23T19:21:05.024Z,2.23
2018-12-23T19:23:46.259Z,2.98
2018-12-23T19:26:27.341Z,2.12
2018-12-23T19:29:08.788Z,2.62
2018-12-23T19:31:49.834Z,2.57
2018-12-23T19:34:33.965Z,2.27
2018-12-23T19:37:13.763Z,2.10
2018-12-23T19:39:54.786Z,2.20
2018-12-23T19:42:35.947Z,2.40
2018-12-23T19:45:17.043Z,3.12
2018-12-23T19:47:57.756Z,2.72
2018-12-23T19:50:38.608Z,2.30
2018-12-23T19:53:19.679Z,2.62
2018-12-23T19:56:00.626Z,2.10
2018-12-23T20:01:28.428Z,3.60
2018-12-23T20:04:09.783Z,2.45
2018-12-23T20:06:51.296Z,3.07
2018-12-23T20:09:32.475Z,3.15
2018-12-23T20:12:13.479Z,2.45
2018-12-23T20:14:54.499Z,3.37
2018-12-23T20:17:35.590Z,2.67
2018-12-23T20:20:16.706Z,2.12
2018-12-23T20:22:57.846Z,2.92
2018-12-23T20:25:38.942Z,2.63
2018-12-23T20:28:23.532Z,3.08
2018-12-23T20:33:47.612Z,2.80
2018-12-23T20:36:28.544Z,2.93
2018-12-23T20:39:10.144Z,2.77
2018-12-23T20:41:51.402Z,4.40
2018-12-23T20:44:32.331Z,2.80
2018-12-23T20:47:12.986Z,2.60
2018-12-23T20:49:55.661Z,3.60
2018-12-23T20:52:36.659Z,3.73
2018-12-23T20:55:17.359Z,3.50
2018-12-23T20:57:58.810Z,3.22
2018-12-23T21:00:39.418Z,2.40
2018-12-23T21:03:20.659Z,6.95
2018-12-23T21:06:01.824Z,2.00
2018-12-23T21:08:42.680Z,4.25
2018-12-23T21:11:23.884Z,4.87
2018-12-23T21:14:05.240Z,1.52
2018-12-23T21:16:46.656Z,1.30
2018-12-23T21:19:27.888Z,1.02
2018-12-23T21:22:08.770Z,1.00
2018-12-23T21:24:50.307Z,1.02
2018-12-23T21:27:31.610Z,0.83
2018-12-23T21:30:12.535Z,1.47
2018-12-23T21:32:53.739Z,1.17
2018-12-23T21:35:34.360Z,1.62
2018-12-23T21:38:15.439Z,1.10
2018-12-23T21:40:56.118Z,1.10
2018-12-23T21:43:37.499Z,1.00
2018-12-23T21:46:18.055Z,1.20
2018-12-23T21:48:59.239Z,0.98
2018-12-23T21:51:40.668Z,0.80
2018-12-23T21:54:22.031Z,0.70
2018-12-23T21:57:03.016Z,0.50
2018-12-23T21:59:44.687Z,0.50
2018-12-23T22:02:25.666Z,0.87
2018-12-23T22:05:06.397Z,0.60
2018-12-23T22:07:47.955Z,1.57
2018-12-23T22:10:29.348Z,0.85
2018-12-23T22:13:10.542Z,0.82
2018-12-23T22:15:52.486Z,0.40
2018-12-23T22:18:33.456Z,0.42
2018-12-23T22:21:14.550Z,1.17
2018-12-23T22:23:55.608Z,0.55
2018-12-23T22:26:36.835Z,0.43
2018-12-23T22:29:18.495Z,0.30
2018-12-23T22:31:59.990Z,0.40
2018-12-23T22:34:41.378Z,0.47
2018-12-23T22:37:22.220Z,0.33
2018-12-23T22:40:02.851Z,0.50
2018-12-23T22:42:44.187Z,0.40
2018-12-23T22:45:25.364Z,0.60
2018-12-23T22:48:06.424Z,0.80
2018-12-23T22:50:47.304Z,0.47
2018-12-23T22:53:28.259Z,0.70
2018-12-23T22:56:08.828Z,2.27
2018-12-23T22:58:49.487Z,0.37
2018-12-23T23:01:30.119Z,0.50
2018-12-23T23:04:11.076Z,1.27
2018-12-23T23:06:51.751Z,1.03
2018-12-23T23:09:32.661Z,2.22
2018-12-23T23:12:13.522Z,1.30
2018-12-23T23:14:55.042Z,0.60
2018-12-23T23:17:36.707Z,0.40
2018-12-23T23:20:17.608Z,1.10
2018-12-23T23:22:58.912Z,0.80
2018-12-23T23:25:39.988Z,0.50
2018-12-23T23:28:28.295Z,0.90
2018-12-23T23:31:17.056Z,0.97
2018-12-23T23:34:05.696Z,0.85
2018-12-23T23:36:47.055Z,2.70
2018-12-23T23:39:28.196Z,1.85
2018-12-23T23:42:09.410Z,0.70
2018-12-23T23:44:50.599Z,0.93
2018-12-23T23:47:32.051Z,0.53
2018-12-23T23:50:12.900Z,2.87
2018-12-23T23:52:54.038Z,1.07
2018-12-23T23:55:35.416Z,1.10
2018-12-23T23:58:16.883Z,1.15
